Tiempo atmosférico en la estación meteorológica de Antequera, Málaga (400 m.)



Fecha
DESCASC
Temp. máxima en grados centígrados (hora)
DESCASC
Temp. mínima en grados centígrados (hora)
DESCASC
Temp. media en grados centígrados
DESCASC
Racha de viento máxima en m/sg (hora)
DESCASC
Velocidad máxima media en intervalos de 10 minutos(hora)
DESCASC
Precipitaciones diarias en mm
DESCASC
Precipitaciones de 00:00 a 06:00 en mm
DESCASC
Precipitaciones de 06:00 a 12:00 en mm
DESCASC
Precipitaciones de 12:00 a 18:00 en mm
DESCASC
Precipitaciones de 18:00 a 24:00 en mm
DESCASC
18-01-2018 14.3 (13:50) 6 (00:40) 10.2 12.5 (15:40) 6.11 (15:40) 0 0 0 0 0
17-01-2018 14.9 (16:20) -0.1 (08:30) 7.4 4.72 (17:00) 2.5 (16:50) 0 0 0 0 0
16-01-2018 13.4 (16:10) -1.1 (06:50) 6.1 5.56 (19:10) 3.33 (19:10) 0 0 0 0 0
15-01-2018 10 (16:30) -0.1 (05:20) 4.9 3.61 (19:40) 2.5 (04:50) 0.1 0 0.1 0 0
14-01-2018 8.3 (16:40) 1.1 (00:00) 4.7 6.67 (20:30) 2.5 (16:10) 6.7 0.1 0.3 4.3 2
13-01-2018 9.1 (19:00) 1.1 (00:00) 5.1 5.28 (19:30) 1.94 (16:40) 0 0 0 0 0
12-01-2018 13.1 (16:10) 0 (00:00) 6.6 4.72 (19:00) 3.06 (18:40) 0 0 0 0 0
11-01-2018 11.7 (15:50) 3.1 (00:00) 7.4 10 (16:10) 5 (17:10) 0 0 0 0 0
10-01-2018 13.9 (14:40) 8.5 (00:00) 11.2 11.11 (01:30) 5 (00:10) 0 0 0 0 0
09-01-2018 9.9 (23:20) -1.5 (-00:0) 4.2 10.83 (23:59) 5.56 (22:40) 3 0.2 0 0.3 2.5
08-01-2018 -- (--) -- (--) -- 7.78 (11:30) 3.89 (11:50) 6.8 0 6.6 0.2 0
07-01-2018 5.7 (14:50) -1 (-00:0) 2.3 5 (15:00) 2.22 (15:00) 0.3 0 0 0.3 0
06-01-2018 11.7 (04:00) 1.9 (00:00) 6.8 12.5 (04:20) 5.56 (02:50) 19.5 5.7 13.5 0.3 0
05-01-2018 14.3 (14:40) 9.7 (00:00) 12 8.89 (14:10) 3.61 (14:10) 0 0 0 0 0
04-01-2018 11.5 (16:10) 4.5 (06:00) 8 4.17 (15:00) 1.67 (16:20) 0 0 0 0 0
03-01-2018 13.9 (16:00) 4.3 (00:00) 9.1 4.72 (17:00) 2.5 (00:10) 0 0 0 0 0
02-01-2018 13.1 (14:40) 0.4 (00:00) 6.8 6.94 (16:50) 3.33 (14:50) 0 0 0 0 0
01-01-2018 14.9 (15:10) 3.1 (00:00) 9 5.28 (17:30) 2.78 (04:40) 0 0 0 0 0
31-12-2017 14.1 (13:30) 4.3 (00:00) 9.2 8.33 (21:20) 3.89 (20:50) 0 0 0 0 0
30-12-2017 17 (16:20) 5 (00:00) 11 3.06 (14:50) 1.94 (20:40) 0.1 0 0.1 0 0
29-12-2017 14.3 (15:40) 10.6 (00:00) 12.5 7.5 (00:50) 3.61 (01:00) 0.1 0.1 0 0 0
28-12-2017 14.5 (16:30) 9.4 (00:00) 11.9 12.5 (10:50) 5.28 (10:50) 0 0 0 0 0
27-12-2017 13.4 (12:20) 8.1 (00:00) 10.8 14.17 (08:20) 7.22 (09:10) 0.7 0 0.7 0 0
26-12-2017 12.3 (12:30) 6.6 (00:00) 9.5 8.61 (12:50) 4.17 (15:50) 2.3 0.2 2.1 0 0
25-12-2017 13.6 (13:10) 5.5 (00:00) 9.6 9.17 (01:00) 4.44 (01:00) 0 0 0 0 0
24-12-2017 14.9 (13:50) 9.2 (00:00) 12 11.67 (01:10) 4.44 (11:40) 0 0 0 0 0

Gráficas

Temp. máximas Temp. mínimas Temp. medias Precipitaciones Rachas de viento máximas Velocidades máximas media en intervalos de 10 minutos

Datos horarios

Fecha y hora oficial Temperatura (ºC) Velocidad del viento (km/h) Dirección del viento Racha (km/h) Dirección de racha Precipitación (mm) Presión (hPa) Tendencia (hPa) Humedad (%)
2018-01-22 23:00:00 8.4 0 Calma 3 Nordeste 0 978.7 0.4 87
2018-01-22 22:00:00 9.7 0 Calma 0 Calma 0 978.4 0.5 81
2018-01-22 21:00:00 11 0 Calma 8 Noroeste 0 978.5 0.9 74
2018-01-22 20:00:00 13 2 Noroeste 8 Nordeste 0 978.3 0.7 65
2018-01-22 19:00:00 14.3 0 Calma 6 Nordeste 0 977.9 0.5 59
2018-01-22 18:00:00 16.1 0 Calma 10 Nordeste 0 977.6 0 57
2018-01-22 17:00:00 17.4 0 Calma 9 Noroeste 0 977.6 -0.6 54
2018-01-22 16:00:00 17.4 0 Calma 12 Nordeste 0 977.4 -2 53
2018-01-22 15:00:00 16.9 4 Norte 14 Nordeste 0 977.6 -2.6 52
2018-01-22 14:00:00 15.3 0 Calma 11 Noroeste 0 978.2 -2.4 55
2018-01-22 13:00:00 13.3 0 Calma 6 Sudeste 0 979.4 -1.1 70
2018-01-22 12:00:00 10.4 0 Calma 3 Este 0 980.2 0.2 81
2018-01-22 11:00:00 5.1 0 Calma 3 Sudeste 0 980.6 0.8 96
2018-01-22 10:00:00 2.6 0 Calma 2 Este 0 980.5 1 96
2018-01-22 09:00:00 0.7 0 Calma 4 Este 0 980 0.6 96
2018-01-22 08:00:00 1.4 0 Calma 2 Sudeste 0 979.8 0.3 96
2018-01-22 07:00:00 1.7 0 Calma 6 Este 0 979.5 -0.6 96
2018-01-22 06:00:00 2.8 4 Oeste 6 Oeste 0 979.4 -0.6 95
2018-01-22 05:00:00 3.2 2 Noroeste 5 Noroeste 0 979.5 -1 95
2018-01-22 04:00:00 4.4 0 Calma 10 Sudeste 0 980.1 -1.1 95
2018-01-22 03:00:00 4.9 0 Calma 4 Sudeste 0 980 -1.3 93
2018-01-22 02:00:00 5.5 0 Calma -- -- -- 980.5 -0.7 93
2018-01-22 01:00:00 5.6 0 Calma 5 Este 0 981.2 0 90
2018-01-22 00:00:00 5.8 0 Calma 7 Sudeste 0 981.3 0.2 92
2018-01-21 23:00:00 6.1 0 Calma 9 Noroeste 0 981.2 0.6 87
2018-01-21 22:00:00 9.5 6 Noroeste 9 Noroeste 0 981.2 1.1 78
2018-01-21 21:00:00 9.1 0 Calma 6 Noroeste 0 981.1 1.8 80
2018-01-21 20:00:00 9.8 0 Calma 8 Noroeste 0 980.6 1.2 75
2018-01-21 19:00:00 11 0 Calma 7 Noroeste 0 980.1 0.6 69
2018-01-21 18:00:00 13.4 4 Oeste 13 Noroeste 0 979.3 -0.3 62
2018-01-21 17:00:00 14.7 5 Noroeste 13 Nordeste 0 979.4 -1.1 60
2018-01-21 16:00:00 14.1 3 Norte 14 Norte 0 979.5 -1.8 60
2018-01-21 15:00:00 13.7 3 Norte 14 Noroeste 0 979.6 -2.4 62
2018-01-21 14:00:00 12.9 3 Noroeste 13 Oeste 0 980.5 -1.4 60
2018-01-21 13:00:00 12 0 Calma 11 Este 0 981.3 0 65
2018-01-21 12:00:00 10.3 3 Este 8 Este 0 982 1.2 70
2018-01-21 11:00:00 6.5 0 Calma 6 Este 0 981.9 1.6 90
2018-01-21 10:00:00 3.2 0 Calma 4 Nordeste 0 981.3 1.4 95
2018-01-21 09:00:00 2.3 0 Calma 5 Sudeste 0 980.8 0.8 95
2018-01-21 08:00:00 3.9 0 Calma 4 Sudoeste 0 980.3 0.4 96
2018-01-21 07:00:00 1.7 0 Calma 4 Sudoeste 0 979.9 -0.2 93
2018-01-21 06:00:00 4 0 Calma 6 Noroeste 0 980 -0.4 93
2018-01-21 05:00:00 4.4 0 Calma -- -- 0 979.9 -0.9 93
2018-01-21 04:00:00 4.7 0 Calma 8 Nordeste 0 980.1 -1 92
2018-01-21 03:00:00 4.8 0 Calma 14 Norte 0 980.4 -1 91
2018-01-21 02:00:00 7.4 9 Nordeste 13 Nordeste 0 980.8 -0.3 88
2018-01-21 01:00:00 7 6 Nordeste 14 Norte 0 981.1 0 86
2018-01-21 00:00:00 6.1 0 Calma 9 Nordeste 0 981.4 0.7 86
2018-01-20 23:00:00 8.7 6 Nordeste 13 Nordeste 0 981.1 0.8 82
2018-01-20 22:00:00 8.4 5 Nordeste 8 Nordeste 0 981.1 1.5 82
2018-01-20 21:00:00 8.9 0 Calma 2 Nordeste 0 980.7 1.5 77
2018-01-20 20:00:00 10 0 Calma 9 Este 0 980.3 1.5 69
2018-01-20 19:00:00 11.9 2 Norte 11 Noroeste 0 979.6 1.1 63
2018-01-20 18:00:00 13.5 5 Noroeste 15 Noroeste 0 979.2 0.5 54
2018-01-20 17:00:00 14.9 8 Noroeste 17 Noroeste 0 978.8 -0.4 53
2018-01-20 16:00:00 15.2 7 Noroeste 14 Noroeste 0 978.5 -1.6 53
2018-01-20 15:00:00 15 3 Norte 13 Noroeste 0 978.7 -2 58
2018-01-20 14:00:00 13.4 6 Noroeste 10 Noroeste 0 979.2 -1.6 60
2018-01-20 13:00:00 11.1 0 Calma 4 Este 0 980.1 0.4 71
2018-01-20 12:00:00 8.5 0 Calma 4 Sudeste 0 980.7 1.5 83
2018-01-20 11:00:00 4.4 0 Calma 4 Este 0 980.8 2.4 95
2018-01-20 10:00:00 2 0 Calma 6 Oeste 0 979.7 2.4 95
2018-01-20 09:00:00 1.7 0 Calma 4 Este 0 979.2 2.3 95
2018-01-20 08:00:00 2.1 0 Calma 6 Este 0 978.4 1.2 95
2018-01-20 07:00:00 2.1 4 Nordeste 8 Noroeste 0 977.3 0 96
2018-01-20 06:00:00 3.7 3 Noroeste 7 Noroeste 0 976.9 0 94
2018-01-20 05:00:00 3.1 0 Calma 3 Este 0 977.2 0.3 94
2018-01-20 04:00:00 3.5 0 Calma 4 Este 0 977.3 0.2 93
2018-01-20 03:00:00 3.9 0 Calma 12 Nordeste 0 976.9 -0.1 92
2018-01-20 02:00:00 5.7 6 Nordeste 10 Nordeste 0 976.9 -0.2 90
2018-01-20 01:00:00 4.7 6 Nordeste 8 Nordeste 0 977.1 1 93
2018-01-20 00:00:00 6.1 0 Calma 9 Oeste 0 977 1.4 87
2018-01-19 23:00:00 7.2 2 Nordeste 5 Norte 0 977.1 2.6 83
2018-01-19 22:00:00 7.9 0 Calma 5 Norte 0 976.1 2.8 79
2018-01-19 21:00:00 9.9 3 Nordeste 8 Nordeste 0 975.6 2.7 74
2018-01-19 20:00:00 10.6 0 Calma 9 Noroeste 0 974.5 2.4 68
2018-01-19 19:00:00 12.1 3 Noroeste 10 Noroeste 0 973.3 1.2 62
2018-01-19 18:00:00 13.7 6 Noroeste 12 Noroeste 0 972.9 1.2 57
2018-01-19 17:00:00 14.4 2 Norte 14 Norte 0 972.1 0.3 54
2018-01-19 16:00:00 15 4 Norte 17 Noroeste 0 972.1 0.3 53
2018-01-19 15:00:00 14.5 3 Nordeste 14 Nordeste 0 971.7 -0.7 52
2018-01-19 14:00:00 13.3 4 Oeste 9 Oeste 0 971.8 -0.3 55
2018-01-19 13:00:00 11.6 0 Calma 8 Este 0 971.8 0.6 65
2018-01-19 12:00:00 9.3 0 Calma 5 Nordeste 0 972.4 1.6 75
2018-01-19 11:00:00 6.7 3 Nordeste 6 Este 0 972.1 1.8 92
2018-01-19 10:00:00 5.3 2 Nordeste 7 Nordeste 0 971.2 1.4 93
2018-01-19 09:00:00 5 0 Calma 4 Noroeste 0 970.8 1.4 92
2018-01-19 08:00:00 5.8 2 Nordeste 6 Nordeste 0 970.3 0.6 90
2018-01-19 07:00:00 5.7 0 Calma 5 Nordeste 0 969.8 -0.1 89
2018-01-19 06:00:00 6.2 4 Oeste 7 Oeste 0 969.4 -0.6 88
2018-01-19 05:00:00 6.4 0 Calma 7 Este 0 969.7 -0.5 87
2018-01-19 04:00:00 6.6 0 Calma 9 Norte 0 969.9 -0.3 86
2018-01-19 03:00:00 7.3 0 Calma 4 Oeste 0 970 -0.3 82
2018-01-19 02:00:00 6.8 0 Calma 12 Noroeste 0 970.2 -0.1 83
2018-01-19 01:00:00 7.1 0 Calma 6 Oeste 0 970.2 -0.5 81
2018-01-19 00:00:00 7.5 0 Calma 8 Noroeste 0 970.3 -0.4 77
2018-01-18 23:00:00 7.9 3 Nordeste 8 Noroeste 0 970.3 -0.6 75
2018-01-18 22:00:00 9.3 0 Calma 7 Noroeste 0 970.7 0 65
2018-01-18 21:00:00 10.5 0 Calma 13 Sur 0 970.7 -0.2 58
2018-01-18 20:00:00 11.4 5 Sudeste 18 Sudeste 0 970.9 -0.1 56
2018-01-18 19:00:00 11.7 7 Sudeste 22 Sudeste 0 970.7 -0.3 52
2018-01-18 18:00:00 12.7 10 Sudeste 26 Sudeste 0 970.9 -0.4 48
2018-01-18 17:00:00 13.2 12 Sudeste 31 Sudeste 0 971 -1.1 46
2018-01-18 16:00:00 13.7 22 Sudeste 45 Sudeste 0 971 -1.7 45
2018-01-18 15:00:00 13.8 15 Sudeste 36 Sudeste 0 971.3 -2.3 48
2018-01-18 14:00:00 14.1 18 Sur 37 Sudeste 0 972.1 -1.7 50
2018-01-18 13:00:00 13.3 14 Sudeste 33 Sudeste 0 972.7 -0.8 54
2018-01-18 12:00:00 13.2 13 Sudeste 29 Sudeste 0 973.6 0.3 58
2018-01-18 11:00:00 12.5 11 Sur 34 Sur 0 973.8 0.8 64
2018-01-18 10:00:00 11.5 10 Sudeste 26 Sudeste 0 973.5 1.2 68
2018-01-18 09:00:00 10 6 Sudeste 31 Sudeste 0 973.3 1 75
2018-01-18 08:00:00 9.6 9 Sudeste 26 Sur 0 973 0.7 75
2018-01-18 07:00:00 10.2 15 Sudeste 29 Sur 0 972.3 -0.4 69
2018-01-18 06:00:00 11 10 Sudeste 23 Sudeste 0 972.3 -0.5 59
2018-01-18 05:00:00 11.7 8 Sudeste 17 Sudeste 0 972.3 -0.6 52
2018-01-18 04:00:00 12.1 9 Sudeste 21 Sudeste 0 972.7 -0.4 52
2018-01-18 03:00:00 11.8 9 Sur 20 Sur 0 972.8 -0.4 52
2018-01-18 02:00:00 11.6 6 Este 14 Sudeste 0 972.9 -0.3 52
2018-01-18 01:00:00 6.9 2 Sudoeste 13 Este 0 973.1 -0.1 81
2018-01-18 00:00:00 6.8 5 Oeste 9 Oeste 0 973.2 0.4 90
2018-01-17 23:00:00 7.2 0 Calma 0 Calma 0 973.2 0 89
2018-01-17 22:00:00 7.3 0 Calma 3 Sur 0 973.2 0.2 86
2018-01-17 21:00:00 9 0 Calma 4 Nordeste 0 972.8 -0.1 78
2018-01-17 20:00:00 10.3 0 Calma 8 Noroeste 0 973.2 0.2 71
2018-01-17 19:00:00 12 0 Calma 11 Noroeste 0 973 0.5 65
2018-01-17 18:00:00 13.9 4 Noroeste 13 Noroeste 0 972.9 0 58
2018-01-17 17:00:00 14.5 8 Noroeste 17 Norte 0 973 -0.8 57
2018-01-17 16:00:00 14.5 3 Norte 10 Noroeste 0 972.5 -2.4 57
2018-01-17 15:00:00 13.3 3 Este 9 Este 0 972.9 -3.1 58
2018-01-17 14:00:00 11.9 3 Este 11 Oeste 0 973.8 -2.7 62
2018-01-17 13:00:00 10 4 Noroeste 12 Noroeste 0 974.9 -1.6 69
2018-01-17 12:00:00 8.7 0 Calma 8 Este 0 976 0.1 77
2018-01-17 11:00:00 5 5 Este 9 Sudeste 0 976.5 0.6 88
2018-01-17 10:00:00 1.1 4 Este 6 Este 0 976.5 0.4 95
2018-01-17 09:00:00 0.5 0 Calma 0 Calma 0 975.9 -0.2 94
2018-01-17 08:00:00 1.1 0 Calma 3 Este 0 975.9 -0.7 94
2018-01-17 07:00:00 1.8 0 Calma 5 Nordeste 0 976.1 -0.6 94
2018-01-17 06:00:00 1.7 0 Calma 0 Calma 0 976.1 -0.9 93
2018-01-17 05:00:00 2.4 0 Calma 5 Oeste 0 976.6 -0.8 93
2018-01-17 04:00:00 2.8 0 Calma 0 Calma 0 976.7 -1.2 91
2018-01-17 03:00:00 3.4 0 Calma 3 Este 0 977 -1.1 89
2018-01-17 02:00:00 3.7 0 Calma 4 Nordeste 0 977.4 -0.8 88
2018-01-17 01:00:00 4.4 0 Calma 5 Oeste 0 977.9 -0.2 87
2018-01-17 00:00:00 5.9 3 Oeste 7 Oeste 0 978.1 -0.2 78
2018-01-16 23:00:00 6.4 4 Oeste 6 Oeste 0 978.2 0 78
2018-01-16 22:00:00 7 0 Calma 11 Noroeste 0 978.1 0.2 74
2018-01-16 21:00:00 8.8 0 Calma 5 Nordeste 0 978.3 0.3 64
2018-01-16 20:00:00 9 0 Calma 20 Noroeste 0 978.2 -0.1 64
2018-01-16 19:00:00 11 7 Noroeste 18 Noroeste 0 977.9 -0.6 55
2018-01-16 18:00:00 12.5 8 Noroeste 15 Noroeste 0 978 -1.4 52
2018-01-16 17:00:00 13.3 4 Noroeste 11 Noroeste 0 978.3 -2 45
2018-01-16 16:00:00 13.3 5 Este 13 Este 0 978.5 -3.2 44
2018-01-16 15:00:00 12.4 6 Este 15 Este 0 979.4 -2.9 52
2018-01-16 14:00:00 11.3 4 Nordeste 9 Este 0 980.3 -2.1 53
2018-01-16 13:00:00 9.4 0 Calma 7 Sudeste 0 981.7 -0.2 62
2018-01-16 12:00:00 6.9 3 Sudeste 8 Este 0 982.3 0.9 78
2018-01-16 11:00:00 4.3 3 Este 6 Este 0 982.4 1.5 88
2018-01-16 10:00:00 1 0 Calma 4 Sur 0 981.9 1.2 94
2018-01-16 09:00:00 0.1 2 Noroeste 6 Sudoeste 0 981.4 0.9 94
2018-01-16 08:00:00 -0.3 2 Sudoeste 6 Sudoeste 0 980.9 0.3 94
2018-01-16 07:00:00 -0.7 0 Calma 5 Noroeste 0 980.7 0.1 94
2018-01-16 06:00:00 -0.1 0 Calma 6 Noroeste 0 980.5 -0.2 94
2018-01-16 05:00:00 0.1 0 Calma 3 Este 0 980.6 -0.2 94
2018-01-16 04:00:00 0.2 0 Calma 4 Nordeste 0 980.6 -0.4 94
2018-01-16 03:00:00 1.5 2 Nordeste 4 Nordeste 0 980.7 -0.6 95
2018-01-16 02:00:00 1 0 Calma 7 Oeste 0 980.8 -0.3 93
2018-01-16 01:00:00 1.8 0 Calma 4 Noroeste 0 981 0.3 92
2018-01-16 00:00:00 3.4 0 Calma 5 Noroeste 0 981.3 1.2 90
2018-01-15 23:00:00 3.8 0 Calma 8 Oeste 0 981.1 1.8 87
2018-01-15 22:00:00 5.1 0 Calma 6 Este 0 980.7 2.7 83
2018-01-15 21:00:00 5.9 0 Calma 10 Norte 0 980.1 2.3 81
2018-01-15 20:00:00 7.7 6 Noroeste 13 Norte 0 979.3 2.1 71
2018-01-15 19:00:00 8.5 3 Noroeste 5 Noroeste 0 978 1.1 64
2018-01-15 18:00:00 8.7 0 Calma 5 Oeste 0 977.8 1.4 68
2018-01-15 17:00:00 10 0 Calma 10 Este 0 977.2 0.3 59
2018-01-15 16:00:00 9.5 4 Nordeste 9 Este 0 976.9 -0.2 60
2018-01-15 15:00:00 8.6 3 Sur 11 Sudeste 0 976.4 -0.9 77
2018-01-15 14:00:00 6.5 2 Sudeste 8 Sur 0 976.9 0.4 93
2018-01-15 13:00:00 4.4 3 Nordeste 8 Nordeste 0 977.1 1.5 96
2018-01-15 12:00:00 2.3 0 Calma 7 Oeste 0 977.3 2.1 97
2018-01-15 11:00:00 1.7 0 Calma 5 Este 0 976.5 2.1 96
2018-01-15 10:00:00 0.9 2 Este 5 Este 0 975.6 1.9 96
2018-01-15 09:00:00 0.8 0 Calma 5 Este 0 975.2 2.3 96
2018-01-15 08:00:00 0.8 2 Este 6 Este 0.1 974.4 2.1 96
2018-01-15 07:00:00 0.9 0 Calma 5 Norte 0 973.7 1.1 96
2018-01-15 06:00:00 0.9 0 Calma 5 Sudeste 0 972.9 0.6 95
2018-01-15 05:00:00 1.1 3 Noroeste 13 Noroeste 0 972.3 -0.2 94
2018-01-15 04:00:00 1.3 0 Calma 7 Nordeste 0 972.6 -0.2 94
2018-01-15 03:00:00 2.8 2 Nordeste 6 Norte 0 972.3 -0.3 91
2018-01-15 02:00:00 3.7 0 Calma 8 Noroeste 0 972.5 0.4 91
2018-01-15 01:00:00 3.4 6 Noroeste 12 Noroeste 0 972.8 1 91
2018-01-15 00:00:00 3.6 9 Noroeste 13 Noroeste 0 972.6 1.3 90
2018-01-14 23:00:00 3.7 0 Calma 5 Norte 0 972.1 1.3 92
2018-01-14 22:00:00 4.1 3 Noroeste 10 Noroeste 0 971.8 1.6 89
2018-01-14 21:00:00 4.9 5 Noroeste 24 Noroeste 1.9 971.3 1.8 87
2018-01-14 20:00:00 5.8 2 Norte 17 Norte 0.1 970.8 1.4 88
2018-01-14 19:00:00 5.5 4 Noroeste 9 Noroeste 0 970.2 1.1 84
2018-01-14 18:00:00 6.6 0 Calma 21 Noroeste 0 969.5 0.6 82
2018-01-14 17:00:00 8 6 Noroeste 19 Noroeste 0 969.4 -0.2 81
2018-01-14 16:00:00 8.1 8 Noroeste 18 Noroeste 0.4 969.1 -1 88
2018-01-14 15:00:00 7.8 0 Calma 9 Noroeste 0.1 968.9 -2.1 91
2018-01-14 14:00:00 6.7 0 Calma 22 Noroeste 3.8 969.6 -1.7 92
2018-01-14 13:00:00 7.2 0 Calma 3 Sudeste 0 970.1 -1.1 94
2018-01-14 12:00:00 6.7 0 Calma 6 Nordeste 0 971 -0.2 95
2018-01-14 11:00:00 4.9 3 Nordeste 5 Este 0.2 971.3 0.2 96
2018-01-14 10:00:00 4.1 0 Calma 3 Este 0.1 971.2 0.2 96
2018-01-14 09:00:00 3 0 Calma 10 Nordeste 0 971.2 -0.2 96
2018-01-14 08:00:00 2.4 0 Calma -- -- -- 971.1 -1 96
2018-01-14 07:00:00 1.1 2 Este 5 Este 0 971 -1.4 96
2018-01-14 06:00:00 2.6 0 Calma 5 Nordeste 0 971.4 -1.1 96
2018-01-14 05:00:00 2 0 Calma 4 Oeste 0.1 972.1 -0.7 96
2018-01-14 04:00:00 1.6 0 Calma 3 Nordeste 0 972.4 -0.9 96
2018-01-14 03:00:00 2.1 0 Calma 6 Nordeste 0 972.5 -1 97
2018-01-14 02:00:00 3.7 0 Calma 6 Oeste 0 972.8 -0.7 95
2018-01-14 01:00:00 4.3 0 Calma 0 Calma 0 973.3 0 94
2018-01-14 00:00:00 5.2 0 Calma 4 Nordeste 0 973.5 0.6 93
2018-01-13 23:00:00 5.8 0 Calma 6 Este 0 973.5 0.8 94
2018-01-13 22:00:00 5.6 2 Oeste 4 Noroeste 0 973.3 1.3 91
2018-01-13 21:00:00 6.8 3 Noroeste 10 Noroeste 0 972.9 1.8 88
2018-01-13 20:00:00 7.8 0 Calma 19 Noroeste 0 972.7 1.8 85
2018-01-13 19:00:00 8.7 3 Noroeste 11 Nordeste 0 972 0.8 82
2018-01-13 18:00:00 8.9 4 Nordeste 10 Este 0 971.1 0.7 80
2018-01-13 17:00:00 8.5 7 Nordeste 14 Nordeste 0 970.9 -0.2 76
2018-01-13 16:00:00 8.6 3 Oeste 10 Noroeste 0 971.2 -0.7 76
2018-01-13 15:00:00 8.8 3 Nordeste 7 Nordeste 0 970.4 -2 69
2018-01-13 14:00:00 8.2 5 Nordeste 9 Este 0 971.1 -1.3 72
2018-01-13 13:00:00 7 4 Este -- -- -- 971.9 0.2 76
2018-01-13 12:00:00 5.4 5 Nordeste 8 Este 0 972.4 1.5 84
2018-01-13 11:00:00 3.5 0 Calma 6 Sur 0 972.4 0.9 90
2018-01-13 10:00:00 3.3 0 Calma 11 Noroeste 0 971.7 0.6 87
2018-01-13 09:00:00 1.4 0 Calma 6 Oeste 0 970.9 -0.5 92
2018-01-13 08:00:00 2.2 0 Calma 8 Nordeste 0 971.5 0.1 88
2018-01-13 07:00:00 1.4 3 Este 7 Nordeste 0 971.1 -0.6 93
2018-01-13 06:00:00 2.9 6 Nordeste 10 Norte 0 971.4 -0.8 89
2018-01-13 05:00:00 1.9 0 Calma 6 Noroeste 0 971.4 -1.2 93
2018-01-13 04:00:00 2.6 0 Calma 6 Noroeste 0 971.7 -2 93
2018-01-13 03:00:00 1.5 0 Calma 7 Noroeste 0 972.2 -2 94
2018-01-13 02:00:00 2.9 0 Calma 4 Noroeste 0 972.6 -1.7 92
2018-01-13 01:00:00 2.3 3 Este 7 Noroeste 0 973.7 -1.2 93
2018-01-13 00:00:00 3.9 2 Noroeste 5 Oeste 0 974.2 -0.8 90
2018-01-12 23:00:00 4.5 0 Calma 5 Noroeste 0 974.3 -0.5 89
2018-01-12 22:00:00 5.1 0 Calma 5 Nordeste 0 974.9 0.3 86
2018-01-12 21:00:00 5.1 3 Este 9 Noroeste 0 975 0.5 87
2018-01-12 20:00:00 7.2 4 Noroeste 15 Noroeste 0 974.8 0.3 80
2018-01-12 19:00:00 8.7 10 Noroeste 17 Noroeste 0 974.6 0.3 71
2018-01-12 18:00:00 10.8 8 Noroeste 14 Noroeste 0 974.5 0.1 53
2018-01-12 17:00:00 12.7 0 Calma 8 Noroeste 0 974.5 -0.7 42
2018-01-12 16:00:00 12.8 4 Nordeste 10 Noroeste 0 974.3 -2.1 41
2018-01-12 15:00:00 12.1 2 Noroeste 10 Noroeste 0 974.4 -2.7 43
2018-01-12 14:00:00 10.7 0 Calma 6 Oeste 0 975.2 -2.6 51
2018-01-12 13:00:00 8.9 0 Calma 11 Este 0 976.4 -0.9 62
2018-01-12 12:00:00 7.3 5 Este 9 Este 0 977.1 -0.1 76
2018-01-12 11:00:00 4.6 3 Oeste 8 Noroeste 0 977.8 0.7 87
2018-01-12 10:00:00 2.3 0 Calma 5 Nordeste 0 977.3 0.5 94
2018-01-12 09:00:00 0.2 0 Calma 10 Nordeste 0 977.2 0.2 94
2018-01-12 08:00:00 0.2 2 Nordeste 7 Nordeste 0 977.1 0.2 95
2018-01-12 07:00:00 1.4 3 Nordeste 7 Nordeste 0 976.8 -0.4 94
2018-01-12 06:00:00 1.5 0 Calma 9 Nordeste 0 977 -0.5 93
2018-01-12 05:00:00 1.8 0 Calma 8 Nordeste 0 976.9 -0.7 92
2018-01-12 04:00:00 2.4 4 Nordeste 10 Norte 0 977.2 -0.8 90
2018-01-12 03:00:00 3.4 0 Calma 10 Noroeste 0 977.5 -0.8 87
2018-01-12 02:00:00 5.4 5 Noroeste 13 Noroeste 0 977.6 -0.9 81
2018-01-12 01:00:00 5.7 3 Noroeste 7 Norte 0 978 -0.2 82
2018-01-12 00:00:00 6 2 Noroeste 8 Noroeste 0 978.3 0.4 80
2018-01-11 23:00:00 7 3 Norte 14 Noroeste 0 978.5 1.2 76
2018-01-11 22:00:00 6.4 0 Calma 7 Norte 0 978.2 1.2 80
2018-01-11 21:00:00 7 0 Calma 9 Norte 0 977.9 1.2 77
2018-01-11 20:00:00 7.7 4 Noroeste 12 Noroeste 0 977.3 0.8 74
2018-01-11 19:00:00 8.9 3 Noroeste 23 Noroeste 0 977 0.4 71
2018-01-11 18:00:00 10.1 8 Noroeste 34 Oeste 0 976.7 0.1 70
2018-01-11 17:00:00 10.9 16 Noroeste 36 Noroeste 0 976.5 -0.6 65
2018-01-11 16:00:00 10.9 16 Noroeste 33 Noroeste 0 976.6 -2.2 66
2018-01-11 15:00:00 11.1 14 Oeste 35 Noroeste 0 976.6 -2.5 63
2018-01-11 14:00:00 10.9 15 Noroeste 30 Sudoeste 0 977.1 -1.6 65
2018-01-11 13:00:00 10 15 Noroeste 27 Noroeste 0 978.8 0.7 70
2018-01-11 12:00:00 9.8 12 Noroeste 25 Oeste 0 979.1 1.4 71
2018-01-11 11:00:00 6.7 5 Este 12 Este 0 978.7 0.9 87
2018-01-11 10:00:00 4.7 0 Calma 5 Nordeste 0 978.1 0.5 90
2018-01-11 09:00:00 3.2 0 Calma 3 Sudoeste 0 977.7 0.2 92
2018-01-11 08:00:00 3.6 0 Calma 2 Sudoeste 0 977.8 0.5 90
2018-01-11 07:00:00 4.9 3 Noroeste 14 Norte 0 977.6 0 88
2018-01-11 06:00:00 5.4 2 Norte 11 Noroeste 0 977.5 0.1 88
2018-01-11 05:00:00 6.1 2 Noroeste 13 Noroeste 0 977.3 0.4 87
2018-01-11 04:00:00 7 5 Noroeste 15 Oeste 0 977.6 0.7 85
2018-01-11 03:00:00 7.6 6 Noroeste 19 Noroeste 0 977.4 0.4 83
2018-01-11 02:00:00 7.8 5 Oeste 22 Oeste 0 976.9 0.2 80
2018-01-11 01:00:00 9.1 12 Oeste 25 Noroeste 0 976.9 1.4 77
2018-01-11 00:00:00 9.7 9 Noroeste 19 Oeste 0 977 2 77
2018-01-10 23:00:00 10.5 8 Noroeste 34 Noroeste 0 976.7 1.5 75
2018-01-10 22:00:00 11.7 14 Oeste 35 Oeste 0 975.5 0.5 76
2018-01-10 21:00:00 11.5 6 Sudoeste 22 Oeste 0 975 0.2 76
2018-01-10 20:00:00 11.8 5 Sudoeste 15 Oeste 0 975.2 0.7 74
2018-01-10 19:00:00 11.9 4 Sudoeste 13 Sudoeste 0 975 0.5 75
2018-01-10 18:00:00 12.5 4 Oeste 18 Oeste 0 974.8 0 71
2018-01-10 17:00:00 13.1 12 Oeste 29 Oeste 0 974.5 -0.1 65
2018-01-10 16:00:00 12.8 9 Noroeste 31 Oeste 0 974.5 -0.8 66
2018-01-10 15:00:00 12.9 14 Noroeste 28 Noroeste 0 974.8 -0.9 65
2018-01-10 14:00:00 12.8 10 Oeste 19 Oeste 0 974.6 -0.7 70
2018-01-10 13:00:00 11.4 6 Oeste 22 Oeste 0 975.3 0.7 74
2018-01-10 12:00:00 10.7 9 Oeste 20 Oeste 0 975.7 1.9 77
2018-01-10 11:00:00 9.9 6 Oeste 13 Oeste 0 975.3 2.6 82
2018-01-10 10:00:00 9.3 6 Oeste 17 Noroeste 0 974.6 2.8 85
2018-01-10 09:00:00 8.8 2 Noroeste 18 Oeste 0 973.8 3.1 87
2018-01-10 08:00:00 9.3 5 Oeste 14 Norte 0 972.7 2 87
2018-01-10 07:00:00 9.9 4 Oeste 17 Sudoeste 0 971.8 2.1 84
2018-01-10 06:00:00 9.6 6 Oeste 14 Oeste 0 970.7 1.4 82
2018-01-10 05:00:00 9.7 3 Sudoeste 22 Sudoeste 0 970.7 1.5 84
2018-01-10 04:00:00 9.8 6 Oeste 20 Sudeste 0 969.7 0.3 86
2018-01-10 03:00:00 9.6 7 Sur 37 Sur 0 969.3 -0.6 87
2018-01-10 02:00:00 9.9 14 Sur 40 Sur 0 969.2 -1.1 86
2018-01-10 01:00:00 9.9 13 Sur 38 Sur 0 969.4 -0.9 84
2018-01-10 00:00:00 9.8 18 Sur 39 Sur 0 969.9 -0.7 84
2018-01-09 23:00:00 9.7 14 Sur 35 Sur 0 970.3 -0.3 86
2018-01-09 22:00:00 9.5 15 Sur 33 Sur 0 970.3 -0.6 86
2018-01-09 21:00:00 9 12 Sur 26 Sudoeste 0 970.6 -0.4 87
2018-01-09 20:00:00 8.2 4 Sudeste 21 Sudeste 0.7 970.6 -0.3 89
2018-01-09 19:00:00 7.7 2 Sudeste 10 Sur 1.8 970.9 -0.3 88
2018-01-09 18:00:00 7.8 0 Calma 7 Sudoeste 0.1 971 -0.5 83
2018-01-09 17:00:00 7.9 0 Calma 5 Sudoeste 0.1 970.9 -1.1 83
2018-01-09 16:00:00 7.8 0 Calma 3 Este 0.1 971.2 -1.8 86
2018-01-09 15:00:00 7.6 2 Nordeste 5 Este 0 971.5 -1.6 83
2018-01-09 14:00:00 6.5 2 Sudeste 5 Sudeste 0 972 -1 89
2018-01-09 13:00:00 5.3 0 Calma 5 Sudeste 0 973 1.3 93
2018-01-09 12:00:00 3.9 0 Calma 7 Este 0 973.1 1.5 93
2018-01-09 11:00:00 2.8 0 Calma 6 Este 0 973 1.9 96
2018-01-09 10:00:00 0.7 3 Este 8 Este 0 971.7 1.1 96
2018-01-09 09:00:00 -0.4 0 Calma 5 Nordeste 0 971.6 2.1 96
2018-01-09 08:00:00 -0.6 0 Calma 6 Oeste 0 971.1 2.1 96
2018-01-09 07:00:00 -0.8 0 Calma 6 Oeste 0 970.6 1.5 95
2018-01-09 06:00:00 0.3 0 Calma 8 Oeste 0.2 969.5 0.8 95
2018-01-09 05:00:00 0.8 5 Noroeste 9 Noroeste 0 969 0.9 95
2018-01-09 04:00:00 1.5 3 Nordeste 7 Nordeste 0 969.1 1.1 95
2018-01-09 03:00:00 1.7 0 Calma 4 Nordeste 0 968.7 0.8 94
2018-01-09 02:00:00 1.8 0 Calma 4 Oeste 0 968.1 0.9 92
2018-01-09 01:00:00 2.6 0 Calma 8 Noroeste 0 968 1.5 92
2018-01-09 00:00:00 2.7 2 Oeste 4 Oeste 0 967.9 1.7 91
2018-01-08 23:00:00 3.4 0 Calma 6 Noroeste 0 967.2 1.7 91
2018-01-08 22:00:00 4.2 0 Calma 0 Calma 0 966.5 1.9 88
2018-01-08 21:00:00 5 0 Calma 5 Sudoeste 0 966.2 2.5 86
2018-01-08 20:00:00 5.7 4 Noroeste 8 Noroeste 0 965.5 2.6 84
2018-01-08 19:00:00 6.2 0 Calma 8 Sudoeste 0 964.6 2.5 80
2018-01-08 18:00:00 6.5 2 Sudoeste 12 Sur 0 963.7 2.8 77
2018-01-08 17:00:00 6.7 5 Sur 15 Sudeste 0 962.9 1.7 74
2018-01-08 16:00:00 7.1 6 Sudeste 19 Sudeste 0 962.1 -- 74
2018-01-08 15:00:00 5.9 9 Sudeste 21 Sur 0 960.9 -- 79
2018-01-08 14:00:00 5.7 6 Sudeste 25 Sudeste 0 961.2 -- 80
2018-01-08 13:00:00 -- 9 Sudeste 18 Sudeste 0.2 -- -- --
2018-01-08 12:00:00 -- 9 Este 28 Sudeste 2 -- -- --
2018-01-08 11:00:00 -- 10 Sudeste 24 Sudeste 2.2 -- -- --
2018-01-08 10:00:00 4.5 5 Sudeste 17 Sudeste 1.3 960.3 1.8 86
2018-01-08 09:00:00 5.1 4 Este 14 Este 1.1 959.2 0.7 82
2018-01-08 08:00:00 5.5 5 Este 18 Sudeste 0 959 0.7 73
2018-01-08 07:00:00 5.3 0 Calma 10 Este 0 958.5 0.4 75
2018-01-08 06:00:00 5.4 6 Este 12 Este 0 958.5 1 74
2018-01-08 05:00:00 4.8 3 Sur 13 Sur 0 958.3 0.6 78
2018-01-08 04:00:00 3.8 2 Nordeste 8 Nordeste 0 958.1 0 87
2018-01-08 03:00:00 3.7 7 Nordeste 12 Norte 0 957.5 -0.6 87
2018-01-08 02:00:00 3.3 0 Calma 3 Nordeste 0 957.7 0.1 93
2018-01-08 01:00:00 3.7 0 Calma 3 Norte 0 958.1 0.8 88
2018-01-08 00:00:00 3.6 0 Calma 4 Nordeste 0 958.1 1 89
2018-01-07 23:00:00 4 0 Calma 10 Nordeste 0 957.6 0.7 86
2018-01-07 22:00:00 4.3 3 Nordeste 9 Nordeste 0 957.3 0.8 82
2018-01-07 21:00:00 4.2 5 Nordeste 7 Nordeste 0 957.1 1.2 83
2018-01-07 20:00:00 4.3 2 Nordeste 7 Nordeste 0 956.9 1.7 84
2018-01-07 19:00:00 4.5 0 Calma 2 Nordeste 0 956.5 2 82
2018-01-07 18:00:00 4.9 0 Calma 9 Noroeste 0 955.9 1.7 82
2018-01-07 17:00:00 4.6 0 Calma 17 Oeste 0.3 955.2 1 83
2018-01-07 16:00:00 5.4 0 Calma 16 Oeste 0 954.5 0 74
2018-01-07 15:00:00 5.5 8 Oeste 18 Oeste 0 954.2 -0.6 70
2018-01-07 14:00:00 5.3 0 Calma 6 Sudoeste 0 954.2 -0.4 75
2018-01-07 13:00:00 4.6 0 Calma 4 Sur 0 954.5 0.2 74
2018-01-07 12:00:00 3.7 0 Calma 9 Este 0 954.8 0.9 79
2018-01-07 11:00:00 2.4 5 Este 8 Este 0 954.6 1.3 87
2018-01-07 10:00:00 0.5 5 Nordeste 9 Este 0 954.3 1.5 91
2018-01-07 09:00:00 -0.3 0 Calma 5 Nordeste 0 953.9 1.1 90
2018-01-07 08:00:00 -0.5 4 Nordeste 6 Este 0 953.3 -0.3 91
2018-01-07 07:00:00 0.2 4 Noroeste 6 Noroeste 0 952.8 -1.3 88
2018-01-07 06:00:00 0.3 0 Calma 4 Oeste 0 952.8 -1.3 84
2018-01-07 05:00:00 1.4 2 Noroeste 6 Noroeste 0 953.6 -0.3 81
2018-01-07 04:00:00 1.8 0 Calma 9 Oeste 0 954.1 -0.4 78
2018-01-07 03:00:00 2 3 Oeste 8 Sudoeste 0 954.1 -0.3 78
2018-01-07 02:00:00 1.9 0 Calma 7 Oeste 0 953.9 -0.6 78
2018-01-07 01:00:00 2 2 Oeste 10 Oeste 0 954.5 -0.2 79
2018-01-07 00:00:00 2 4 Oeste 8 Oeste 0 954.4 -0.2 81
2018-01-06 23:00:00 2.9 0 Calma 6 Oeste 0 954.5 0.2 76
2018-01-06 22:00:00 4.5 0 Calma 9 Sudoeste 0 954.7 0.8 72
2018-01-06 21:00:00 5.1 0 Calma 19 Noroeste 0 954.6 0.8 70
2018-01-06 20:00:00 5.6 3 Oeste 9 Sudoeste 0 954.3 1.3 73
2018-01-06 19:00:00 5.8 2 Oeste 15 Oeste 0 953.9 1.4 71
2018-01-06 18:00:00 6.7 5 Oeste 22 Noroeste 0 953.8 1.8 70
2018-01-06 17:00:00 7.8 16 Oeste 35 Noroeste 0 953 1 60
2018-01-06 16:00:00 8.4 19 Oeste 36 Noroeste 0.1 952.5 0.3 62
2018-01-06 15:00:00 7.6 15 Oeste 34 Oeste 0 952 -0.3 75
2018-01-06 14:00:00 6.8 14 Oeste 32 Oeste 0 952 -0.5 82
2018-01-06 13:00:00 6.1 10 Oeste 22 Oeste 0.2 952.2 0.4 90
2018-01-06 12:00:00 5.1 3 Noroeste 8 Este 0.1 952.3 1.6 89
2018-01-06 11:00:00 4.4 2 Noroeste 21 Noroeste 1.6 952.5 2.9 89
2018-01-06 10:00:00 3.9 12 Noroeste 33 Oeste 5.4 951.8 1.8 89
2018-01-06 09:00:00 5.6 10 Oeste 32 Oeste 4.2 950.7 -0.5 92
2018-01-06 08:00:00 7.4 5 Noroeste 25 Sudoeste 1.1 949.6 -3.1 89
2018-01-06 07:00:00 7.6 4 Sudoeste 22 Sur 1.1 950 -2.7 89
2018-01-06 06:00:00 7.3 0 Calma 30 Sudoeste 2.9 951.2 -2.6 91
2018-01-06 05:00:00 7.4 12 Oeste 45 Sur 2.8 952.7 -2.7 86
2018-01-06 04:00:00 11.3 19 Sur 41 Sudoeste 0 952.7 -4.4 69
2018-01-06 03:00:00 11.2 19 Sur 43 Sudeste 0 953.8 -4.5 76
2018-01-06 02:00:00 11 16 Sur 37 Sur 0 955.4 -4.3 77
2018-01-06 01:00:00 10.9 18 Sur 31 Sudeste 0 957.1 -3.1 75
2018-01-06 00:00:00 11.3 10 Sur 23 Sur 0 958.3 -3.1 70
2018-01-05 23:00:00 11.6 7 Sur 23 Sur 0 959.7 -2.3 61
2018-01-05 22:00:00 11.7 3 Sur 27 Sudoeste 0 960.2 -2.4 59
2018-01-05 21:00:00 12 5 Sudoeste 17 Sur 0 961.4 -1.6 58
2018-01-05 20:00:00 11.7 3 Sur 17 Sudoeste 0 962 -2 58
2018-01-05 19:00:00 12.2 6 Sudoeste 21 Sudoeste 0 962.6 -1.9 59
2018-01-05 18:00:00 13 0 Calma 17 Oeste 0 963 -2.2 62
2018-01-05 17:00:00 13.5 8 Oeste 24 Oeste 0 964 -2.5 56
2018-01-05 16:00:00 13.5 10 Oeste 28 Oeste 0 964.5 -3.9 56
2018-01-05 15:00:00 13.5 10 Oeste 32 Oeste 0 965.2 -4.5 57
2018-01-05 14:00:00 13.1 11 Noroeste 24 Oeste 0 966.5 -4.3 64
2018-01-05 13:00:00 11.7 5 Nordeste 13 Nordeste 0 968.4 -2.9 75
2018-01-05 12:00:00 11.4 5 Nordeste 12 Nordeste 0 969.7 -1.7 77
2018-01-05 11:00:00 11.2 4 Nordeste 8 Nordeste 0 970.8 -1.2 82
2018-01-05 10:00:00 10.1 5 Nordeste 9 Nordeste 0 971.3 -0.5 89
2018-01-05 09:00:00 9.9 5 Nordeste 9 Nordeste 0 971.4 -0.5 92
2018-01-05 08:00:00 10.1 0 Calma 10 Nordeste 0 972 -0.9 89
2018-01-05 07:00:00 10.1 2 Nordeste 10 Norte 0 971.8 -2 89
2018-01-05 06:00:00 10.3 0 Calma 9 Norte 0 971.9 -2.2 90
2018-01-05 05:00:00 10.2 0 Calma 13 Norte 0 972.9 -2.3 90
2018-01-05 04:00:00 10.3 2 Norte 11 Nordeste 0 973.8 -2.3 89
2018-01-05 03:00:00 9.8 3 Nordeste 6 Noroeste 0 974.1 -2.7 91
2018-01-05 02:00:00 10.4 0 Calma 14 Noroeste 0 975.2 -2.3 88
2018-01-05 01:00:00 10.2 9 Noroeste 14 Noroeste 0 976.1 -2 89
2018-01-05 00:00:00 10.6 0 Calma 7 Norte 0 976.8 -1.8 87
2018-01-04 23:00:00 10.6 2 Nordeste 6 Nordeste 0 977.5 -1.3 87
2018-01-04 22:00:00 10.5 0 Calma 6 Norte 0 978.1 -0.3 87
2018-01-04 21:00:00 10.8 2 Nordeste 8 Norte 0 978.6 0.3 84
2018-01-04 20:00:00 10.9 2 Norte 11 Norte 0 978.8 -0.1 83
2018-01-04 19:00:00 10.9 0 Calma 13 Nordeste 0 978.4 -0.9 82
2018-01-04 18:00:00 11.3 4 Noroeste 10 Noroeste 0 978.3 -1.5 82
2018-01-04 17:00:00 11.4 3 Norte 13 Nordeste 0 978.9 -1.4 82
2018-01-04 16:00:00 11.4 4 Nordeste 13 Norte 0 979.3 -1.7 83
2018-01-04 15:00:00 10.9 6 Nordeste 15 Nordeste 0 979.8 -1.9 84
2018-01-04 14:00:00 10.7 3 Norte 13 Nordeste 0 980.3 -1.9 87
2018-01-04 13:00:00 9.7 3 Norte -- -- -- 981 -0.8 90
2018-01-04 12:00:00 8.9 0 Calma 5 Este 0 981.7 -0.1 95
2018-01-04 11:00:00 8.1 0 Calma 4 Este 0 982.2 0.6 95
2018-01-04 10:00:00 7.3 0 Calma 0 Calma 0 981.8 0.4 95
2018-01-04 09:00:00 6.7 0 Calma 0 Calma 0 981.8 0.4 95
2018-01-04 08:00:00 6.7 0 Calma 4 Oeste 0 981.6 0 95
2018-01-04 07:00:00 5.9 0 Calma 4 Norte 0 981.4 -0.8 95
2018-01-04 06:00:00 4.6 0 Calma 4 Este 0 981.4 -1.1 95
2018-01-04 05:00:00 5.7 0 Calma 4 Sudeste 0 981.6 -1.2 95
2018-01-04 04:00:00 6.3 0 Calma 4 Sur 0 982.2 -0.9 95
2018-01-04 03:00:00 6.2 0 Calma 4 Sudeste 0 982.5 -0.8 95
2018-01-04 02:00:00 6.2 0 Calma 6 Nordeste 0 982.8 -0.7 95
2018-01-04 01:00:00 6.6 0 Calma 2 Sur 0 983.1 -0.6 92
2018-01-04 00:00:00 7.6 0 Calma 5 Noroeste 0 983.3 -0.5 89
2018-01-03 23:00:00 8.5 2 Nordeste 9 Norte 0 983.5 0.2 87
2018-01-03 22:00:00 10.6 6 Noroeste 10 Noroeste 0 983.7 0.4 82
2018-01-03 21:00:00 10.4 4 Noroeste 9 Noroeste 0 983.8 0.5 83
2018-01-03 20:00:00 10.9 4 Noroeste 8 Noroeste 0 983.3 0.1 81
2018-01-03 19:00:00 11.7 0 Calma 9 Noroeste 0 983.3 0 76
2018-01-03 18:00:00 12.6 3 Norte 15 Nordeste 0 983.3 -0.4 73
2018-01-03 17:00:00 13.7 4 Norte 17 Norte 0 983.2 -1.3 70
2018-01-03 16:00:00 13.7 4 Norte 14 Noroeste 0 983.3 -2 70
2018-01-03 15:00:00 13.2 3 Norte 14 Noroeste 0 983.7 -2.3 71
2018-01-03 14:00:00 12.5 3 Norte 14 Noroeste 0 984.5 -1.7 74
2018-01-03 13:00:00 12.2 3 Norte 12 Norte 0 985.3 -0.4 75
2018-01-03 12:00:00 11.4 5 Noroeste 10 Noroeste 0 986 0.9 80
2018-01-03 11:00:00 8 0 Calma 6 Este 0 986.2 1.1 88
2018-01-03 10:00:00 6.9 0 Calma 9 Nordeste 0 985.7 0.9 92
2018-01-03 09:00:00 6.5 0 Calma 6 Oeste 0 985.1 0.5 92
2018-01-03 08:00:00 5.2 4 Este 7 Este 0 985.1 0.7 93
2018-01-03 07:00:00 5.2 0 Calma 5 Este 0 984.8 -0.1 93
2018-01-03 06:00:00 6.1 0 Calma 7 Nordeste 0 984.6 -0.5 93
2018-01-03 05:00:00 5.1 4 Nordeste 7 Nordeste 0 984.4 -0.7 94
2018-01-03 04:00:00 5.1 0 Calma 4 Este 0 984.9 -0.5 93
2018-01-03 03:00:00 5.5 0 Calma 4 Noroeste 0 985.1 -0.6 92
2018-01-03 02:00:00 6.2 0 Calma 5 Nordeste 0 985.1 -0.2 90
2018-01-03 01:00:00 6.2 2 Este 14 Noroeste 0 985.4 0.1 89
2018-01-03 00:00:00 6.8 0 Calma 6 Noroeste 0 985.7 0.4 87
2018-01-02 23:00:00 7.5 0 Calma 10 Noroeste 0 985.3 0.3 83
2018-01-02 22:00:00 8.1 3 Oeste 5 Noroeste 0 985.3 0.5 82
2018-01-02 21:00:00 8.7 2 Oeste 4 Oeste 0 985.3 0.8 80
2018-01-02 20:00:00 9 0 Calma 14 Noroeste 0 985 0.8 76
2018-01-02 19:00:00 10.4 4 Noroeste 13 Oeste 0 984.8 0.8 71
2018-01-02 18:00:00 11.4 2 Norte 19 Norte 0 984.5 0.4 65
2018-01-02 17:00:00 12.4 5 Norte 25 Noroeste 0 984.2 -0.4 62
2018-01-02 16:00:00 12.9 5 Norte 23 Noroeste 0 984 -1.6 62
2018-01-02 15:00:00 12.7 7 Noroeste 24 Noroeste 0 984.1 -2.7 62
2018-01-02 14:00:00 12.5 9 Noroeste 20 Nordeste 0 984.6 -2.1 60
2018-01-02 13:00:00 12.3 6 Nordeste 17 Noroeste 0 985.6 -0.5 63
2018-01-02 12:00:00 9.5 3 Nordeste 9 Este 0 986.8 1.3 70
2018-01-02 11:00:00 5.2 2 Sudeste 6 Este 0 986.7 1.6 84
2018-01-02 10:00:00 2.6 0 Calma 3 Sudeste 0 986.1 1.2 93
2018-01-02 09:00:00 0.7 0 Calma 3 Este 0 985.5 0.4 94
2018-01-02 08:00:00 1.2 0 Calma 3 Nordeste 0 985.1 -0.3 94
2018-01-02 07:00:00 1.3 0 Calma 8 Oeste 0 984.9 -0.6 94
2018-01-02 06:00:00 1.7 4 Nordeste 6 Nordeste 0 985.1 -0.5 94
2018-01-02 05:00:00 2.2 0 Calma 4 Este 0 985.4 0.1 93
2018-01-02 04:00:00 3.6 0 Calma 6 Oeste 0 985.5 -0.3 89
2018-01-02 03:00:00 3.4 0 Calma 9 Noroeste 0 985.6 -0.3 87
2018-01-02 02:00:00 3.5 0 Calma 5 Nordeste 0 985.3 -0.8 90
2018-01-02 01:00:00 4.7 0 Calma 9 Norte 0 985.8 -0.3 88
2018-01-02 00:00:00 4.2 2 Este 9 Nordeste 0 985.9 -0.1 88
2018-01-01 23:00:00 5.9 0 Calma 10 Noroeste 0 986.1 0.9 81
2018-01-01 22:00:00 6.5 0 Calma 5 Nordeste 0 986.1 1.6 78
2018-01-01 21:00:00 7.5 4 Noroeste 9 Noroeste 0 986 1.3 72
2018-01-01 20:00:00 8.6 5 Noroeste 8 Norte 0 985.2 0.7 70
2018-01-01 19:00:00 9.3 0 Calma 9 Norte 0 984.5 0.9 65
2018-01-01 18:00:00 11 3 Nordeste 19 Nordeste 0 984.7 0.6 59
2018-01-01 17:00:00 13.6 3 Norte 18 Noroeste 0 984.5 -0.4 51
2018-01-01 16:00:00 14.4 6 Noroeste 15 Noroeste 0 983.6 -2 50
2018-01-01 15:00:00 14.8 4 Noroeste 14 Noroeste 0 984.1 -2.2 44
2018-01-01 14:00:00 13.1 4 Nordeste 13 Noroeste 0 984.9 -1.6 48
2018-01-01 13:00:00 11.6 2 Oeste 8 Noroeste 0 985.6 -0.1 57
2018-01-01 12:00:00 9.9 0 Calma 8 Este 0 986.3 0.7 77
2018-01-01 11:00:00 5.4 2 Sur 8 Sur 0 986.5 1.8 94
2018-01-01 10:00:00 4.1 2 Sudeste 9 Nordeste 0 985.7 2.1 95
2018-01-01 09:00:00 4 2 Oeste 5 Noroeste 0 985.6 1.8 94
2018-01-01 08:00:00 3.9 0 Calma 9 Noroeste 0 984.7 0.6 94
2018-01-01 07:00:00 4.7 2 Noroeste 8 Noroeste 0 983.6 -0.9 95
2018-01-01 06:00:00 5.1 0 Calma 4 Este 0 983.8 -0.5 93
2018-01-01 05:00:00 6.2 0 Calma 14 Noroeste 0 984.1 -0.5 92
2018-01-01 04:00:00 7.6 0 Calma 12 Norte 0 984.5 -0.1 88
2018-01-01 03:00:00 8.7 2 Norte 12 Nordeste 0 984.3 0.1 81
2018-01-01 02:00:00 9.1 2 Norte 15 Noroeste 0 984.6 1.2 80
2018-01-01 01:00:00 9.5 2 Norte 13 Norte 0 984.6 2.1 87
2018-01-01 00:00:00 10.7 4 Noroeste 20 Noroeste 0 984.2 2.8 83
2017-12-31 23:00:00 12.2 13 Noroeste 29 Noroeste 0 983.4 2.6 81
2017-12-31 22:00:00 12.4 10 Oeste 30 Oeste 0 982.5 3.1 80
2017-12-31 21:00:00 12.3 12 Oeste 26 Oeste 0 981.4 2.3 75
2017-12-31 20:00:00 12.9 9 Oeste 18 Oeste 0 980.8 2.1 72
2017-12-31 19:00:00 12.9 8 Oeste 20 Oeste 0 979.4 0.7 71
2017-12-31 18:00:00 13.1 5 Noroeste 15 Noroeste 0 979.1 0.5 69
2017-12-31 17:00:00 13.3 10 Noroeste 22 Noroeste 0 978.7 -0.1 66
2017-12-31 16:00:00 13.6 8 Noroeste 23 Noroeste 0 978.7 -0.6 68
2017-12-31 15:00:00 13.9 8 Oeste 28 Oeste 0 978.6 -1.1 65
2017-12-31 14:00:00 13.9 12 Oeste 27 Noroeste 0 978.8 -0.7 65
2017-12-31 13:00:00 13.8 7 Oeste 16 Noroeste 0 979.3 0.2 74
2017-12-31 12:00:00 11.3 5 Nordeste 9 Nordeste 0 979.7 1.4 86
2017-12-31 11:00:00 9.3 4 Nordeste 9 Nordeste 0 979.5 1.9 91
2017-12-31 10:00:00 6.3 0 Calma 6 Nordeste 0 979.1 2.3 94
2017-12-31 09:00:00 5.3 0 Calma 5 Oeste 0 978.3 1.3 94
2017-12-31 08:00:00 4.6 0 Calma 11 Noroeste 0 977.6 0.5 94
2017-12-31 07:00:00 5 0 Calma 7 Oeste 0 976.8 -1 95
2017-12-31 06:00:00 4.5 0 Calma -- -- 0 977 -1 96
2017-12-31 05:00:00 5.6 0 Calma 8 Nordeste 0 977.1 -0.8 97
2017-12-31 04:00:00 4.9 0 Calma 4 Nordeste 0 977.8 -0.5 96
2017-12-31 03:00:00 5.9 0 Calma 6 Noroeste 0 978 -0.5 95
2017-12-31 02:00:00 5.9 0 Calma 3 Nordeste 0 977.9 -0.7 95
2017-12-31 01:00:00 6.4 0 Calma 4 Nordeste 0 978.3 -0.4 93